Time;durP1;ratioP1;P1;durP2;ratioP2;P2;SDS_P1;SDS_P2;PMS_P1;PMS_P2;Temp;Humidity;BMP_temperature;BMP_pressure;BME280_temperature;BME280_humidity;BME280_pressure;Samples;Min_cycle;Max_cycle;Signal;HPM_P1;HPM_P2
2020/12/29 00:00:22;;;;;;;22.02;16.38;;;;;;;11.31;nan;97753.47;5020323;28;97886;-77
2020/12/29 00:03:09;;;;;;;22.00;16.23;;;;;;;11.28;nan;97744.72;5021292;28;98072;-77
2020/12/29 00:05:38;;;;;;;26.48;15.75;;;;;;;11.25;nan;97737.69;5021455;28;97254;-77
2020/12/29 00:08:05;;;;;;;23.48;16.17;;;;;;;11.24;nan;97734.19;4995958;28;97549;-76
2020/12/29 00:10:32;;;;;;;22.35;15.60;;;;;;;11.30;nan;97745.56;5021118;28;98122;-77
2020/12/29 00:13:00;;;;;;;26.90;17.38;;;;;;;11.28;nan;97742.94;5021412;28;99783;-76
2020/12/29 00:15:28;;;;;;;23.70;16.15;;;;;;;11.35;nan;97743.84;5019920;28;98218;-77
2020/12/29 00:17:55;;;;;;;25.17;16.45;;;;;;;11.40;nan;97742.09;5022458;28;97122;-77
2020/12/29 00:20:23;;;;;;;27.33;17.70;;;;;;;11.39;nan;97745.59;5003383;28;101870;-77
2020/12/29 00:22:51;;;;;;;22.65;16.77;;;;;;;11.38;nan;97749.97;5020715;28;98264;-77
2020/12/29 00:25:19;;;;;;;31.50;22.07;;;;;;;11.43;nan;97742.09;5021651;28;97462;-78
2020/12/29 00:27:46;;;;;;;24.75;17.48;;;;;;;11.47;nan;97733.34;5001709;28;98003;-77
2020/12/29 00:30:14;;;;;;;26.35;17.80;;;;;;;11.46;nan;97735.06;5021640;28;99671;-77
2020/12/29 00:32:41;;;;;;;27.05;16.83;;;;;;;11.46;nan;97735.06;5020574;28;98098;-76
2020/12/29 00:35:09;;;;;;;30.70;18.20;;;;;;;11.44;nan;97726.31;5019568;28;97177;-76
2020/12/29 00:37:38;;;;;;;25.00;16.48;;;;;;;11.41;nan;97723.69;5020299;28;97868;-77
2020/12/29 00:40:05;;;;;;;28.55;17.95;;;;;;;11.41;nan;97709.66;5019818;27;99220;-76
2020/12/29 00:42:33;;;;;;;26.35;16.70;;;;;;;11.38;nan;97689.53;5020949;28;100158;-76
2020/12/29 00:45:01;;;;;;;25.95;17.25;;;;;;;11.38;nan;97694.81;5002312;28;97345;-77
2020/12/29 00:47:29;;;;;;;26.55;18.17;;;;;;;11.40;nan;97705.31;5021194;28;97334;-77
2020/12/29 00:49:56;;;;;;;29.38;18.30;;;;;;;11.41;nan;97707.03;5019973;28;99199;-77
2020/12/29 00:52:24;;;;;;;29.05;18.08;;;;;;;11.39;nan;97724.56;4993608;28;97933;-78
2020/12/29 00:55:01;;;;;;;25.52;17.90;;;;;;;11.41;nan;97726.31;5003722;28;97620;-77
2020/12/29 00:57:42;;;;;;;28.52;17.27;;;;;;;11.40;nan;97737.72;5001654;28;97532;-78
2020/12/29 01:00:10;;;;;;;28.05;18.27;;;;;;;11.40;nan;97735.09;5002676;28;99298;-80
2020/12/29 01:02:57;;;;;;;30.75;19.15;;;;;;;11.38;nan;97738.59;5021307;28;98883;-77
2020/12/29 01:05:25;;;;;;;28.77;18.08;;;;;;;11.38;nan;97726.34;5020524;28;97891;-77
2020/12/29 01:07:53;;;;;;;27.98;18.58;;;;;;;11.39;nan;97725.44;5001301;28;98297;-76
2020/12/29 01:10:22;;;;;;;30.73;17.88;;;;;;;11.42;nan;97725.47;5001215;28;99096;-77
2020/12/29 01:13:08;;;;;;;30.25;18.83;;;;;;;11.43;nan;97727.22;5018815;28;98263;-77
2020/12/29 01:15:40;;;;;;;26.98;17.38;;;;;;;11.42;nan;97730.72;5002978;28;97610;-77
2020/12/29 01:18:08;;;;;;;27.10;17.73;;;;;;;11.42;nan;97738.59;5001406;28;97815;-76
2020/12/29 01:20:35;;;;;;;31.63;19.02;;;;;;;11.41;nan;97726.31;4988934;28;101006;-78
2020/12/29 01:23:02;;;;;;;29.23;18.67;;;;;;;11.43;nan;97740.34;5020210;28;99053;-77
2020/12/29 01:25:31;;;;;;;26.55;18.13;;;;;;;11.43;nan;97732.47;5019814;27;97475;-78
2020/12/29 01:27:58;;;;;;;28.20;18.45;;;;;;;11.40;nan;97732.47;5019599;28;97717;-78
2020/12/29 01:30:26;;;;;;;26.90;18.23;;;;;;;11.38;nan;97726.34;5019118;28;97882;-79
2020/12/29 01:32:53;;;;;;;26.00;17.38;;;;;;;11.36;nan;97724.56;5020089;28;99245;-77
2020/12/29 01:35:21;;;;;;;29.13;18.02;;;;;;;11.37;nan;97739.47;5020649;28;97429;-77
2020/12/29 01:37:49;;;;;;;24.65;17.00;;;;;;;11.40;nan;97748.25;5019454;28;97415;-77
2020/12/29 01:40:16;;;;;;;31.95;18.98;;;;;;;11.38;nan;97742.09;5018972;27;98229;-77
2020/12/29 01:42:45;;;;;;;28.65;18.40;;;;;;;11.37;nan;97744.72;4986395;28;99437;-78
2020/12/29 01:45:14;;;;;;;32.30;18.58;;;;;;;11.37;nan;97742.97;5018837;28;98017;-77
2020/12/29 01:47:42;;;;;;;29.08;18.13;;;;;;;11.37;nan;97748.22;5019867;28;97216;-77
2020/12/29 01:50:11;;;;;;;26.88;17.90;;;;;;;11.36;nan;97753.47;5018339;28;99096;-77
2020/12/29 01:52:39;;;;;;;31.25;19.60;;;;;;;11.34;nan;97745.59;5018814;28;97751;-77
2020/12/29 01:55:07;;;;;;;26.08;17.95;;;;;;;11.36;nan;97745.59;5019313;28;97587;-77
2020/12/29 01:57:35;;;;;;;27.48;16.45;;;;;;;11.37;nan;97742.09;5000781;28;97623;-78
2020/12/29 02:00:06;;;;;;;27.77;17.35;;;;;;;11.36;nan;97758.72;5019963;28;98264;-78
2020/12/29 02:02:40;;;;;;;26.50;17.00;;;;;;;11.37;nan;97761.34;5018645;28;99342;-77
2020/12/29 02:05:08;;;;;;;32.73;22.63;;;;;;;11.43;nan;97757.84;5020271;28;98030;-78
2020/12/29 02:07:36;;;;;;;37.80;24.75;;;;;;;11.52;nan;97764.00;5001123;28;97702;-77
2020/12/29 02:10:04;;;;;;;27.05;19.17;;;;;;;11.52;nan;97757.88;4999682;28;99806;-78
2020/12/29 02:12:33;;;;;;;28.90;17.98;;;;;;;11.51;nan;97772.78;5019595;28;99784;-77
2020/12/29 02:15:01;;;;;;;27.08;17.40;;;;;;;11.48;nan;97775.38;5020030;28;97695;-77
2020/12/29 02:17:31;;;;;;;25.55;16.90;;;;;;;11.50;nan;97776.25;5019244;28;97996;-76
2020/12/29 02:19:59;;;;;;;32.30;21.87;;;;;;;11.54;nan;97779.78;5016295;28;97866;-77
2020/12/29 02:22:28;;;;;;;26.15;18.50;;;;;;;11.53;nan;97776.25;5019786;28;98312;-77
2020/12/29 02:24:57;;;;;;;26.02;17.35;;;;;;;11.47;nan;97783.28;5019189;28;97883;-77
2020/12/29 02:27:26;;;;;;;31.23;21.88;;;;;;;11.55;nan;97782.41;5017768;28;97988;-77
2020/12/29 02:29:54;;;;;;;27.83;18.70;;;;;;;11.56;nan;97781.53;5018690;28;97828;-78
2020/12/29 02:32:22;;;;;;;26.42;16.95;;;;;;;11.54;nan;97778.03;5019319;28;99152;-77
2020/12/29 02:34:50;;;;;;;27.08;17.20;;;;;;;11.51;nan;97780.66;5019663;28;97913;-77
2020/12/29 02:37:18;;;;;;;24.60;16.30;;;;;;;11.51;nan;97775.41;5000695;28;97334;-78
2020/12/29 02:39:50;;;;;;;24.15;16.58;;;;;;;11.49;nan;97776.28;5018158;27;98946;-77
2020/12/29 02:42:19;;;;;;;24.10;16.15;;;;;;;11.45;nan;97772.75;5017859;28;98123;-78
2020/12/29 02:44:47;;;;;;;24.60;15.38;;;;;;;11.41;nan;97776.25;5018997;28;97193;-78
2020/12/29 02:47:14;;;;;;;23.52;15.43;;;;;;;11.38;nan;97778.88;5018480;27;97144;-76
2020/12/29 02:49:42;;;;;;;27.20;16.90;;;;;;;11.36;nan;97780.63;5018108;28;98027;-77
2020/12/29 02:52:09;;;;;;;23.05;15.60;;;;;;;11.32;nan;97776.25;5000863;28;101105;-78
2020/12/29 02:54:36;;;;;;;24.55;15.80;;;;;;;11.27;nan;97778.00;5018459;28;97407;-76
2020/12/29 02:57:04;;;;;;;26.20;16.63;;;;;;;11.22;nan;97775.34;5018722;28;96869;-77
2020/12/29 02:59:32;;;;;;;24.75;15.98;;;;;;;11.21;nan;97786.72;5017820;28;98173;-76
2020/12/29 03:02:00;;;;;;;22.88;15.95;;;;;;;11.18;nan;97783.22;5016842;27;98090;-76
2020/12/29 03:04:28;;;;;;;25.85;15.85;;;;;;;11.18;nan;97781.44;5017979;27;97712;-77
2020/12/29 03:06:56;;;;;;;25.67;15.82;;;;;;;11.16;nan;97785.84;5016114;28;97880;-75
2020/12/29 03:09:24;;;;;;;23.90;15.38;;;;;;;11.14;nan;97805.09;4990589;28;97603;-77
2020/12/29 03:11:51;;;;;;;24.23;16.25;;;;;;;11.10;nan;97812.09;4995234;28;98882;-77
2020/12/29 03:14:19;;;;;;;25.27;16.15;;;;;;;11.13;nan;97811.25;5018913;27;97728;-76
2020/12/29 03:16:47;;;;;;;22.30;15.63;;;;;;;11.12;nan;97812.09;5003697;28;98615;-77
2020/12/29 03:19:22;;;;;;;22.17;16.27;;;;;;;11.11;nan;97813.84;4991981;28;98220;-77
2020/12/29 03:21:50;;;;;;;22.17;15.32;;;;;;;11.13;nan;97827.00;5002869;28;98020;-77
2020/12/29 03:24:17;;;;;;;21.40;14.48;;;;;;;11.12;nan;97825.22;4994962;28;97810;-76
2020/12/29 03:26:45;;;;;;;22.25;15.80;;;;;;;11.11;nan;97828.75;5020041;28;96912;-75
2020/12/29 03:29:12;;;;;;;23.98;16.50;;;;;;;11.08;nan;97826.06;5002896;28;97181;-76
2020/12/29 03:31:43;;;;;;;21.63;14.75;;;;;;;11.08;nan;97828.72;4996699;28;97911;-75
2020/12/29 03:34:17;;;;;;;20.88;14.68;;;;;;;11.02;nan;97832.19;5019973;28;97483;-75
2020/12/29 03:36:44;;;;;;;19.77;15.18;;;;;;;11.02;nan;97836.59;4995803;28;96880;-76
2020/12/29 03:39:12;;;;;;;19.88;15.07;;;;;;;11.02;nan;97831.34;4991445;28;97227;-76
2020/12/29 03:41:39;;;;;;;22.63;15.27;;;;;;;10.98;nan;97829.56;4993162;28;98654;-76
2020/12/29 03:44:07;;;;;;;20.45;14.98;;;;;;;10.92;nan;97826.91;5002407;28;97700;-75
2020/12/29 03:46:35;;;;;;;22.35;14.43;;;;;;;10.89;nan;97833.00;4999283;28;97449;-75
2020/12/29 03:49:04;;;;;;;17.52;14.32;;;;;;;10.87;nan;97828.63;5017733;28;98394;-76
2020/12/29 03:51:31;;;;;;;20.65;14.55;;;;;;;10.82;nan;97825.97;4992421;28;99164;-76
2020/12/29 03:53:59;;;;;;;17.80;13.48;;;;;;;10.81;nan;97823.34;5021021;28;97450;-76
2020/12/29 03:56:27;;;;;;;18.48;13.45;;;;;;;10.80;nan;97824.22;5021098;28;96895;-76
2020/12/29 03:59:13;;;;;;;15.95;12.45;;;;;;;10.78;nan;97823.34;5002285;28;98037;-75
2020/12/29 04:01:40;;;;;;;19.17;13.30;;;;;;;10.75;nan;97818.94;5021319;28;98064;-76
2020/12/29 04:04:09;;;;;;;20.65;15.75;;;;;;;10.79;nan;97818.09;5020350;28;97305;-78
2020/12/29 04:06:37;;;;;;;16.92;12.02;;;;;;;10.78;nan;97820.72;4997120;28;97417;-78
2020/12/29 04:09:05;;;;;;;16.38;12.27;;;;;;;10.73;nan;97825.94;5003791;28;98391;-76
2020/12/29 04:11:32;;;;;;;16.50;11.43;;;;;;;10.69;nan;97821.53;5020659;28;97814;-77
2020/12/29 04:14:00;;;;;;;16.80;11.55;;;;;;;10.66;nan;97828.50;5022177;27;97079;-77
2020/12/29 04:16:28;;;;;;;14.25;12.00;;;;;;;10.67;nan;97825.03;5022190;28;97717;-77
2020/12/29 04:18:56;;;;;;;15.25;11.82;;;;;;;10.66;nan;97826.78;5021199;28;98605;-77
2020/12/29 04:21:24;;;;;;;13.82;10.77;;;;;;;10.63;nan;97831.13;5021680;28;98053;-78
2020/12/29 04:23:52;;;;;;;16.52;11.60;;;;;;;10.62;nan;97832.88;5004223;28;97771;-76
2020/12/29 04:26:19;;;;;;;12.48;10.73;;;;;;;10.55;nan;97830.19;5021940;27;97622;-76
2020/12/29 04:28:47;;;;;;;15.93;10.98;;;;;;;10.53;nan;97821.47;5018596;28;98190;-77
2020/12/29 04:31:15;;;;;;;12.60;10.35;;;;;;;10.52;nan;97830.19;5021916;28;97938;-77
2020/12/29 04:33:43;;;;;;;14.38;10.25;;;;;;;10.55;nan;97833.72;5020822;28;97158;-77
2020/12/29 04:36:10;;;;;;;13.02;10.02;;;;;;;10.57;nan;97836.34;5003131;28;97935;-77
2020/12/29 04:38:39;;;;;;;13.65;10.50;;;;;;;10.54;nan;97831.97;5020574;28;99297;-77
2020/12/29 04:41:06;;;;;;;13.83;12.30;;;;;;;10.60;nan;97839.84;5019285;27;99235;-77
2020/12/29 04:43:35;;;;;;;14.18;10.90;;;;;;;10.64;nan;97835.50;5021132;28;97061;-78
2020/12/29 04:46:04;;;;;;;12.20;10.75;;;;;;;10.65;nan;97842.53;5022246;28;97022;-78
2020/12/29 04:48:32;;;;;;;13.25;10.10;;;;;;;10.68;nan;97847.78;5020132;28;98200;-76
2020/12/29 04:51:17;;;;;;;10.32;8.90;;;;;;;10.66;nan;97852.13;5020740;28;98364;-77
2020/12/29 04:53:57;;;;;;;10.48;9.40;;;;;;;10.64;nan;97856.50;5020590;27;97401;-77
2020/12/29 04:56:31;;;;;;;12.02;9.73;;;;;;;10.58;nan;97853.84;5020870;28;97235;-77
2020/12/29 04:59:00;;;;;;;11.25;9.98;;;;;;;10.59;nan;97853.84;5020832;28;97924;-77
2020/12/29 05:01:30;;;;;;;10.25;9.25;;;;;;;10.65;nan;97856.53;5018313;27;97896;-77
2020/12/29 05:04:02;;;;;;;11.55;9.57;;;;;;;10.65;nan;97866.13;5018867;27;97546;-77
2020/12/29 05:06:29;;;;;;;11.65;9.50;;;;;;;10.63;nan;97863.50;5020611;28;97484;-77
2020/12/29 05:08:57;;;;;;;12.68;11.32;;;;;;;10.65;nan;97866.13;5018415;28;98555;-78
2020/12/29 05:11:25;;;;;;;14.40;12.88;;;;;;;10.68;nan;97868.78;5018617;28;97808;-77
2020/12/29 05:13:53;;;;;;;13.50;12.10;;;;;;;10.75;nan;97874.06;5019719;28;96762;-77
2020/12/29 05:16:20;;;;;;;13.90;12.50;;;;;;;10.82;nan;97872.38;5020206;28;98021;-77
2020/12/29 05:18:48;;;;;;;10.63;9.52;;;;;;;10.77;nan;97869.72;5019846;28;97775;-76
2020/12/29 05:21:16;;;;;;;11.38;10.18;;;;;;;10.73;nan;97867.06;5018883;28;99069;-77
2020/12/29 05:23:43;;;;;;;12.23;10.23;;;;;;;10.64;nan;97872.25;5002962;28;97648;-77
2020/12/29 05:26:12;;;;;;;11.10;9.43;;;;;;;10.59;nan;97874.84;5021028;28;97998;-76
2020/12/29 05:28:40;;;;;;;12.90;9.70;;;;;;;10.55;nan;97880.06;5019821;28;99501;-76
2020/12/29 05:31:08;;;;;;;13.27;10.18;;;;;;;10.53;nan;97894.94;5020550;27;98144;-77
2020/12/29 05:33:36;;;;;;;11.18;9.98;;;;;;;10.49;nan;97899.25;5020537;28;97246;-76
2020/12/29 05:36:04;;;;;;;11.57;10.25;;;;;;;10.44;nan;97897.50;5019109;28;97877;-76
2020/12/29 05:38:31;;;;;;;11.15;9.77;;;;;;;10.42;nan;97896.63;5017844;28;99200;-77
2020/12/29 05:40:59;;;;;;;11.27;9.93;;;;;;;10.41;nan;97890.47;5020247;28;99222;-76
2020/12/29 05:43:29;;;;;;;12.25;9.85;;;;;;;10.42;nan;97888.75;5020342;28;98767;-76
2020/12/29 05:46:01;;;;;;;11.32;10.23;;;;;;;10.48;nan;97883.50;5020228;27;97427;-76
2020/12/29 05:48:29;;;;;;;14.13;9.63;;;;;;;10.49;nan;97880.91;5018699;28;98149;-77
2020/12/29 05:50:56;;;;;;;14.15;11.20;;;;;;;10.48;nan;97879.16;5019323;28;101315;-77
2020/12/29 05:53:42;;;;;;;13.55;10.77;;;;;;;10.49;nan;97885.28;5019856;28;96802;-76
2020/12/29 05:56:11;;;;;;;13.27;11.40;;;;;;;10.46;nan;97883.50;5019252;28;97421;-77
2020/12/29 05:58:41;;;;;;;17.73;13.93;;;;;;;10.51;nan;97892.28;5018300;28;97942;-76
2020/12/29 06:01:08;;;;;;;16.33;14.27;;;;;;;10.55;nan;97890.56;5018231;28;97952;-76
2020/12/29 06:03:37;;;;;;;17.27;13.95;;;;;;;10.57;nan;97904.56;5017712;28;97208;-77
2020/12/29 06:06:07;;;;;;;17.13;14.38;;;;;;;10.56;nan;97915.94;5000414;28;97649;-77
2020/12/29 06:08:35;;;;;;;15.53;13.60;;;;;;;10.53;nan;97911.53;5018174;28;97838;-77
2020/12/29 06:11:13;;;;;;;16.55;14.43;;;;;;;10.54;nan;97913.31;5000438;28;98264;-77
2020/12/29 06:13:47;;;;;;;15.55;14.00;;;;;;;10.57;nan;97920.31;5016552;28;98425;-76
2020/12/29 06:16:16;;;;;;;17.73;14.50;;;;;;;10.62;nan;97924.72;5016690;28;97610;-76
2020/12/29 06:18:46;;;;;;;17.35;14.18;;;;;;;10.67;nan;97924.78;5017915;28;98110;-76
2020/12/29 06:21:14;;;;;;;13.23;10.75;;;;;;;10.62;nan;97922.09;5020254;28;98001;-76
2020/12/29 06:23:47;;;;;;;15.70;13.90;;;;;;;10.74;nan;97927.47;5017744;28;97803;-78
2020/12/29 06:26:18;;;;;;;15.65;13.98;;;;;;;10.76;nan;97937.97;5018767;28;97538;-77
2020/12/29 06:28:52;;;;;;;18.83;14.50;;;;;;;10.77;nan;97937.06;5017665;28;99212;-76
2020/12/29 06:31:38;;;;;;;18.70;15.33;;;;;;;10.83;nan;97947.63;5017802;28;99165;-76
2020/12/29 06:34:24;;;;;;;17.60;15.00;;;;;;;10.79;nan;97951.97;5017529;28;98658;-77
2020/12/29 06:36:54;;;;;;;19.00;15.17;;;;;;;10.79;nan;97949.34;5018008;28;97435;-76
2020/12/29 06:39:21;;;;;;;19.20;15.77;;;;;;;10.80;nan;97958.13;5016807;28;98986;-76
2020/12/29 06:41:50;;;;;;;19.00;15.32;;;;;;;10.83;nan;97952.88;5017786;28;99169;-77
2020/12/29 06:44:18;;;;;;;18.40;16.03;;;;;;;10.88;nan;97959.03;5017144;27;97627;-76
2020/12/29 06:46:55;;;;;;;20.55;16.38;;;;;;;10.93;nan;97962.59;5017405;28;98536;-77
2020/12/29 06:49:23;;;;;;;19.77;16.37;;;;;;;10.99;nan;97970.47;5015141;28;98274;-76
2020/12/29 06:52:20;;;;;;;21.08;16.95;;;;;;;10.93;nan;97967.84;5019233;28;98094;-75
2020/12/29 06:54:49;;;;;;;20.52;15.27;;;;;;;10.94;nan;97977.47;5018110;28;97357;-77
2020/12/29 06:57:16;;;;;;;21.13;16.40;;;;;;;10.95;nan;97973.97;5016589;28;97576;-77
2020/12/29 06:59:45;;;;;;;22.05;16.35;;;;;;;10.94;nan;97978.34;5018026;28;99057;-76
2020/12/29 07:02:20;;;;;;;21.40;16.27;;;;;;;10.93;nan;97981.81;5000420;28;98297;-77
2020/12/29 07:04:49;;;;;;;20.83;16.70;;;;;;;10.98;nan;97995.00;5018429;28;98602;-76
2020/12/29 07:07:31;;;;;;;20.42;16.08;;;;;;;10.99;nan;98009.88;5016572;28;96876;-76
2020/12/29 07:10:00;;;;;;;20.80;17.70;;;;;;;11.01;nan;98011.66;5015635;27;97821;-76
2020/12/29 07:12:31;;;;;;;23.25;18.55;;;;;;;10.98;nan;98018.63;5017581;28;99289;-77
2020/12/29 07:15:01;;;;;;;21.38;18.33;;;;;;;10.94;nan;98009.88;5016544;28;96772;-76
2020/12/29 07:17:30;;;;;;;20.52;18.05;;;;;;;10.98;nan;98018.63;5010322;28;97588;-77
2020/12/29 07:19:58;;;;;;;20.88;17.73;;;;;;;10.94;nan;98014.22;5012269;28;97811;-77
2020/12/29 07:22:32;;;;;;;21.87;17.93;;;;;;;10.94;nan;98014.22;5016825;28;97799;-77
2020/12/29 07:25:00;;;;;;;22.33;18.98;;;;;;;10.95;nan;98026.47;4997728;28;97772;-77
2020/12/29 07:27:30;;;;;;;21.77;18.03;;;;;;;10.90;nan;98022.94;5016030;28;97363;-76
2020/12/29 07:29:59;;;;;;;22.70;18.85;;;;;;;10.91;nan;98024.72;5015642;28;98180;-76
2020/12/29 07:32:28;;;;;;;23.50;19.60;;;;;;;10.87;nan;98023.81;5017143;28;98239;-76
2020/12/29 07:34:55;;;;;;;24.88;19.85;;;;;;;10.86;nan;98034.28;5017022;28;97432;-77
2020/12/29 07:37:24;;;;;;;26.27;19.67;;;;;;;10.87;nan;98034.31;5018295;28;97038;-76
2020/12/29 07:39:51;;;;;;;24.83;20.20;;;;;;;10.88;nan;98035.19;4988496;28;97726;-76
2020/12/29 07:42:18;;;;;;;22.17;19.10;;;;;;;10.85;nan;98036.06;5014937;28;99114;-76
2020/12/29 07:44:47;;;;;;;26.73;20.30;;;;;;;10.84;nan;98036.03;4992852;28;97446;-75
2020/12/29 07:47:16;;;;;;;41.53;32.97;;;;;;;10.84;nan;98043.91;4988252;28;97285;-76
2020/12/29 07:49:44;;;;;;;30.05;23.42;;;;;;;10.82;nan;98049.13;5011509;28;99172;-77
2020/12/29 07:52:21;;;;;;;24.85;18.88;;;;;;;10.79;nan;98056.13;5015299;28;99500;-76
2020/12/29 07:55:09;;;;;;;18.70;14.60;;;;;;;10.64;nan;98048.09;5018069;28;98587;-76
2020/12/29 07:57:37;;;;;;;19.77;14.35;;;;;;;10.53;nan;98049.78;5015741;28;98120;-75
2020/12/29 08:00:23;;;;;;;17.10;14.07;;;;;;;10.47;nan;98060.22;5013572;27;99330;-76
2020/12/29 08:02:52;;;;;;;17.90;13.35;;;;;;;10.40;nan;98059.25;4995751;28;98424;-77
2020/12/29 08:05:20;;;;;;;17.70;13.23;;;;;;;10.37;nan;98058.34;5022018;28;97648;-76
2020/12/29 08:07:55;;;;;;;18.10;13.15;;;;;;;10.31;nan;98058.31;5022142;28;97361;-76
2020/12/29 08:10:23;;;;;;;19.73;13.45;;;;;;;10.30;nan;98059.16;5018669;28;97893;-76
2020/12/29 08:12:54;;;;;;;20.67;13.25;;;;;;;10.24;nan;98059.09;5020781;28;99406;-76
2020/12/29 08:15:26;;;;;;;20.08;13.60;;;;;;;10.20;nan;98055.53;5021357;28;97056;-76
2020/12/29 08:18:05;;;;;;;16.42;12.48;;;;;;;10.16;nan;98062.50;5021721;28;97531;-77
2020/12/29 08:20:34;;;;;;;17.02;12.68;;;;;;;10.14;nan;98053.72;5022001;28;97859;-76
2020/12/29 08:23:05;;;;;;;19.25;12.88;;;;;;;10.14;nan;98060.75;5020723;28;99596;-76
2020/12/29 08:25:33;;;;;;;21.52;13.68;;;;;;;10.13;nan;98065.09;5021044;28;96862;-77
2020/12/29 08:28:04;;;;;;;22.58;13.75;;;;;;;10.15;nan;98076.47;5021064;28;97123;-76
2020/12/29 08:30:32;;;;;;;16.27;12.55;;;;;;;10.18;nan;98065.16;5021030;28;97805;-77
2020/12/29 08:33:02;;;;;;;18.67;13.02;;;;;;;10.19;nan;98067.78;5018383;28;99415;-77
2020/12/29 08:35:34;;;;;;;14.75;12.45;;;;;;;10.18;nan;98079.13;5001730;28;97349;-77
2020/12/29 08:38:09;;;;;;;19.10;13.98;;;;;;;10.20;nan;98082.66;5012571;28;97806;-77
2020/12/29 08:40:41;;;;;;;19.67;13.43;;;;;;;10.16;nan;98087.88;5018408;28;98345;-78
2020/12/29 08:43:09;;;;;;;20.02;13.40;;;;;;;10.13;nan;98093.94;5013102;28;99890;-78
2020/12/29 08:45:36;;;;;;;18.95;14.02;;;;;;;10.10;nan;98100.91;5016913;28;97461;-77
2020/12/29 08:48:04;;;;;;;16.67;13.85;;;;;;;10.09;nan;98107.88;5000075;28;96910;-77
2020/12/29 08:50:34;;;;;;;18.15;13.20;;;;;;;10.08;nan;98111.34;5018767;27;97884;-76
2020/12/29 08:53:04;;;;;;;18.50;13.13;;;;;;;10.13;nan;98108.78;5017979;27;98338;-77
2020/12/29 08:55:34;;;;;;;20.35;13.60;;;;;;;10.15;nan;98114.94;5020803;27;97682;-75
2020/12/29 08:58:02;;;;;;;17.67;13.23;;;;;;;10.17;nan;98113.22;5017701;27;96850;-72
2020/12/29 09:00:31;;;;;;;17.58;13.55;;;;;;;10.19;nan;98106.25;5015469;27;97934;-74
2020/12/29 09:02:59;;;;;;;18.60;11.95;;;;;;;10.26;nan;98112.44;5019610;27;97883;-72
2020/12/29 09:05:28;;;;;;;19.55;13.02;;;;;;;10.34;nan;98113.41;5017988;27;97840;-73
2020/12/29 09:07:56;;;;;;;15.93;11.70;;;;;;;10.35;nan;98109.91;5019776;27;97294;-73
2020/12/29 09:10:24;;;;;;;17.77;13.27;;;;;;;10.36;nan;98109.97;5016470;27;97969;-73
2020/12/29 09:13:10;;;;;;;19.20;13.27;;;;;;;10.38;nan;98117.84;5019483;27;99127;-71
2020/12/29 09:16:09;;;;;;;18.20;12.38;;;;;;;10.40;nan;98118.75;5018960;27;97119;-75
2020/12/29 09:18:40;;;;;;;18.65;12.98;;;;;;;10.40;nan;98113.50;5014610;27;98049;-73
2020/12/29 09:21:21;;;;;;;17.58;12.77;;;;;;;10.39;nan;98123.09;5017235;27;98000;-74
2020/12/29 09:24:00;;;;;;;23.20;13.75;;;;;;;10.43;nan;98129.25;5018315;27;99185;-73
2020/12/29 09:26:28;;;;;;;17.05;13.18;;;;;;;10.43;nan;98129.25;5017421;27;97597;-73
2020/12/29 09:28:57;;;;;;;19.45;13.15;;;;;;;10.45;nan;98125.78;5017608;27;97681;-74
2020/12/29 09:31:26;;;;;;;20.27;13.93;;;;;;;10.49;nan;98134.59;5017887;27;98170;-73
2020/12/29 09:34:24;;;;;;;18.15;12.90;;;;;;;10.55;nan;98138.13;5015355;27;97961;-73
2020/12/29 09:36:52;;;;;;;21.30;14.50;;;;;;;10.61;nan;98145.19;5016254;27;97456;-72
2020/12/29 09:39:20;;;;;;;22.55;16.85;;;;;;;10.64;nan;98135.59;5014236;27;97262;-74
2020/12/29 09:41:55;;;;;;;26.55;17.58;;;;;;;10.71;nan;98141.81;5017787;27;98309;-73
2020/12/29 09:44:22;;;;;;;18.98;13.48;;;;;;;10.71;nan;98144.44;5017808;27;97784;-72
2020/12/29 09:46:50;;;;;;;21.27;12.73;;;;;;;10.70;nan;98145.28;5018166;27;97654;-74
2020/12/29 09:49:17;;;;;;;18.50;12.70;;;;;;;10.67;nan;98150.53;5016114;27;97814;-73
2020/12/29 09:51:45;;;;;;;14.73;12.20;;;;;;;10.66;nan;98149.63;5017128;27;98401;-74
2020/12/29 09:54:12;;;;;;;14.93;12.30;;;;;;;10.64;nan;98155.72;5018572;27;97930;-73
2020/12/29 09:56:40;;;;;;;20.00;13.18;;;;;;;10.64;nan;98160.97;5017795;27;97671;-73
2020/12/29 09:59:08;;;;;;;19.00;12.88;;;;;;;10.69;nan;98169.78;5017048;27;97242;-75
2020/12/29 10:01:35;;;;;;;18.90;13.38;;;;;;;10.68;nan;98175.88;5017113;27;98962;-74
2020/12/29 10:04:03;;;;;;;17.33;12.38;;;;;;;10.66;nan;98186.38;4996169;28;101446;-74
2020/12/29 10:06:31;;;;;;;15.40;12.98;;;;;;;10.65;nan;98181.13;5012632;27;97839;-75
2020/12/29 10:08:58;;;;;;;20.05;13.30;;;;;;;10.69;nan;98188.16;5018241;27;97462;-75
2020/12/29 10:11:27;;;;;;;21.63;16.20;;;;;;;10.74;nan;98183.84;5017546;27;97860;-76
2020/12/29 10:13:55;;;;;;;19.17;14.20;;;;;;;10.81;nan;98190.91;5016559;27;98247;-75
2020/12/29 10:16:22;;;;;;;17.50;13.95;;;;;;;10.86;nan;98186.59;5015296;27;97181;-75
2020/12/29 10:18:50;;;;;;;16.90;12.77;;;;;;;10.94;nan;98190.19;5015820;27;97377;-76
2020/12/29 10:21:20;;;;;;;15.77;12.15;;;;;;;11.01;nan;98195.50;5015728;27;98172;-75
2020/12/29 10:23:47;;;;;;;16.73;12.15;;;;;;;11.05;nan;98197.31;4992122;27;99527;-74
2020/12/29 10:26:15;;;;;;;14.82;11.50;;;;;;;11.13;nan;98200.00;5008612;27;97765;-72
2020/12/29 10:28:42;;;;;;;15.40;12.07;;;;;;;11.17;nan;98196.53;5015265;27;97289;-74
2020/12/29 10:31:11;;;;;;;13.02;10.57;;;;;;;11.25;nan;98210.63;4987358;28;97807;-73
2020/12/29 10:33:38;;;;;;;15.50;10.82;;;;;;;11.29;nan;98216.78;5008450;27;97945;-74
2020/12/29 10:36:06;;;;;;;14.05;11.18;;;;;;;11.32;nan;98222.06;5010958;27;97327;-75
2020/12/29 10:38:34;;;;;;;12.18;10.75;;;;;;;11.37;nan;98233.50;4997267;28;97530;-74
2020/12/29 10:41:02;;;;;;;14.20;10.13;;;;;;;11.41;nan;98230.91;5014634;27;97940;-73
2020/12/29 10:43:30;;;;;;;13.00;10.43;;;;;;;11.45;nan;98242.31;5014211;27;102499;-73
2020/12/29 10:45:57;;;;;;;11.82;10.32;;;;;;;11.49;nan;98231.88;5018770;27;97392;-73
2020/12/29 10:48:25;;;;;;;9.88;8.93;;;;;;;11.50;nan;98233.63;5001344;28;97579;-73
2020/12/29 10:50:53;;;;;;;10.40;9.20;;;;;;;11.51;nan;98238.03;5015188;27;98446;-73
2020/12/29 10:53:20;;;;;;;11.48;8.68;;;;;;;11.54;nan;98247.66;5017009;27;98489;-74
2020/12/29 10:55:48;;;;;;;11.82;9.32;;;;;;;11.57;nan;98245.94;5017121;27;97330;-73
2020/12/29 10:58:15;;;;;;;11.15;8.82;;;;;;;11.62;nan;98249.50;5016593;27;97000;-75
2020/12/29 11:00:43;;;;;;;10.68;9.38;;;;;;;11.67;nan;98254.81;5015319;27;97931;-72
2020/12/29 11:03:10;;;;;;;11.07;9.52;;;;;;;11.70;nan;98263.63;5015269;27;99511;-73
2020/12/29 11:05:39;;;;;;;11.50;10.30;;;;;;;11.73;nan;98261.00;5015180;27;98126;-73
2020/12/29 11:08:06;;;;;;;10.70;9.20;;;;;;;11.76;nan;98261.03;5016578;27;97011;-74
2020/12/29 11:10:34;;;;;;;11.88;9.02;;;;;;;11.76;nan;98258.41;5017171;27;97907;-73
2020/12/29 11:13:02;;;;;;;10.77;9.68;;;;;;;11.80;nan;98249.69;5015775;27;97785;-72
2020/12/29 11:15:30;;;;;;;10.35;9.27;;;;;;;11.89;nan;98260.28;5017189;27;97038;-73
2020/12/29 11:17:57;;;;;;;9.68;8.68;;;;;;;11.93;nan;98272.56;5017073;27;97345;-74
2020/12/29 11:20:25;;;;;;;10.18;8.65;;;;;;;11.94;nan;98263.81;5016793;27;97941;-73
2020/12/29 11:22:53;;;;;;;11.80;10.15;;;;;;;12.02;nan;98277.03;5017337;27;99683;-74
2020/12/29 11:25:21;;;;;;;12.15;9.20;;;;;;;12.05;nan;98272.66;4983881;28;98230;-72
2020/12/29 11:27:49;;;;;;;11.68;9.45;;;;;;;12.11;nan;98277.97;5016555;27;96701;-74
2020/12/29 11:30:18;;;;;;;9.98;8.88;;;;;;;12.16;nan;98281.50;5014417;27;98554;-72
2020/12/29 11:32:46;;;;;;;11.95;9.38;;;;;;;12.15;nan;98273.59;4997212;28;98005;-73
2020/12/29 11:35:13;;;;;;;12.15;9.23;;;;;;;12.17;nan;98278.00;5017039;27;97553;-73
2020/12/29 11:37:41;;;;;;;9.10;8.20;;;;;;;12.24;nan;98284.19;4998490;28;97483;-73
2020/12/29 11:40:10;;;;;;;9.98;8.77;;;;;;;12.28;nan;98280.69;4997656;27;99237;-74
2020/12/29 11:42:37;;;;;;;9.63;8.45;;;;;;;12.31;nan;98287.72;5018769;27;98806;-74
2020/12/29 11:45:05;;;;;;;10.88;9.00;;;;;;;12.30;nan;98297.38;5020696;27;97713;-74